< < Back
Terminal Aerodrome Forecast


Current Version              Previous Versions:   1  2  3  4  5  6  7  8  9  

Terminal Aerodrome Forecast

375
FTUS42 KJAX 261120
TAFJAX
TAF
KJAX 261120Z 2612/2712 13005KT P6SM SCT025
      TEMPO 2612/2613 BKN025
     FM261400 14008KT P6SM BKN035
     FM261600 14012KT P6SM BKN040
     FM262300 15006KT P6SM SCT040 BKN250=



Latest METAR

507
SAUS80 KWBC 270100
MTRJAX
METAR KJAX 270056Z 11008KT 10SM FEW023 SCT080 OVC250 26/22 A3021 RMK AO2
SLP229 T02560222


USA.gov is the U.S. government's official web portal to all federal, state and local government web resources and services.